Time;durP1;ratioP1;P1;durP2;ratioP2;P2;SDS_P1;SDS_P2;PMS_P1;PMS_P2;Temp;Humidity;BMP_temperature;BMP_pressure;BME280_temperature;BME280_humidity;BME280_pressure;Samples;Min_cycle;Max_cycle;Signal;HPM_P1;HPM_P2
2024/03/01 00:01:27;;;;;;;;;;;9.60;99.90;;;9.60;55.68;99181.81;4939049;29;19934;-84
2024/03/01 00:03:55;;;;;;;;;;;9.60;99.90;;;9.61;55.44;99183.44;4938427;29;19974;-84
2024/03/01 00:06:24;;;;;;;;;;;9.50;99.90;;;9.65;55.61;99178.44;4939205;29;19927;-85
2024/03/01 00:08:52;;;;;;;;;;;9.50;99.90;;;9.67;55.65;99174.53;4920304;29;19950;-85
2024/03/01 00:11:19;;;;;;;;;;;9.60;99.90;;;9.66;55.83;99172.06;4919908;29;19934;-85
2024/03/01 00:13:46;;;;;;;;;;;9.60;99.90;;;9.67;55.77;99171.88;4919843;29;19927;-85
2024/03/01 00:16:13;;;;;;;;;;;9.60;99.90;;;9.68;56.26;99168.16;4918838;29;19950;-85
2024/03/01 00:18:41;;;;;;;;;;;9.60;99.90;;;9.68;55.94;99170.00;4917934;29;19926;-85
2024/03/01 00:21:08;;;;;;;;;;;9.60;99.90;;;9.70;56.02;99165.25;4938334;29;19930;-85
2024/03/01 00:23:36;;;;;;;;;;;9.60;99.90;;;9.72;56.15;99163.97;4921795;29;19946;-85
2024/03/01 00:26:07;;;;;;;;;;;9.60;99.90;;;9.71;56.39;99150.88;4937458;29;19927;-85
2024/03/01 00:28:35;;;;;;;;;;;9.60;99.90;;;9.65;56.58;99144.66;4936841;29;19927;-85
2024/03/01 00:31:03;;;;;;;;;;;9.60;99.90;;;9.64;56.54;99148.38;4938187;29;19933;-85
2024/03/01 00:33:32;;;;;;;;;;;9.60;99.90;;;9.61;56.50;99145.38;4937699;29;19978;-85
2024/03/01 00:35:59;;;;;;;;;;;9.60;99.90;;;9.60;57.01;99141.09;4936994;29;19938;-84
2024/03/01 00:38:27;;;;;;;;;;;9.50;99.90;;;9.61;56.84;99151.50;4938053;29;19970;-85
2024/03/01 00:40:58;;;;;;;;;;;9.50;99.90;;;9.66;57.09;99143.63;4938987;29;20371;-85
2024/03/01 00:43:25;;;;;;;;;;;9.60;99.90;;;9.61;56.40;99140.03;4938724;29;19982;-85
2024/03/01 00:45:52;;;;;;;;;;;9.50;99.90;;;9.55;57.45;99141.81;4949110;28;19933;-85
2024/03/01 00:48:20;;;;;;;;;;;9.50;99.90;;;9.52;57.26;99140.44;4942980;29;19934;-85
2024/03/01 00:50:47;;;;;;;;;;;9.50;99.90;;;9.56;57.31;99143.41;4943661;29;19933;-85
2024/03/01 00:53:16;;;;;;;;;;;9.50;99.90;;;9.62;57.71;99139.81;4949972;28;19950;-85
2024/03/01 00:55:43;;;;;;;;;;;9.50;99.90;;;9.60;57.72;99133.91;4924601;29;19934;-85
2024/03/01 00:58:13;;;;;;;;;;;9.50;99.90;;;9.63;57.79;99136.09;4941623;29;20396;-85
2024/03/01 01:00:40;;;;;;;;;;;9.60;99.90;;;9.64;57.76;99132.41;4939577;29;19959;-85
2024/03/01 01:03:06;;;;;;;;;;;9.70;99.90;;;9.67;57.63;99137.25;4924692;29;19978;-85
2024/03/01 01:05:34;;;;;;;;;;;9.50;99.90;;;9.68;57.88;99133.53;4923845;29;19927;-85
2024/03/01 01:08:01;;;;;;;;;;;9.50;99.90;;;9.71;58.14;99126.91;4925752;29;20017;-85
2024/03/01 01:10:31;;;;;;;;;;;9.50;99.90;;;9.57;57.68;99125.63;4960276;29;19926;-85
2024/03/01 01:12:58;;;;;;;;;;;9.50;99.90;;;9.50;57.65;99126.53;4949125;28;19927;-85
2024/03/01 01:15:27;;;;;;;;;;;9.50;99.90;;;9.55;58.02;99118.66;4939677;29;20311;-85
2024/03/01 01:17:54;;;;;;;;;;;9.50;99.90;;;9.61;58.29;99119.56;4959548;28;19927;-85
2024/03/01 01:20:22;;;;;;;;;;;9.50;99.90;;;9.63;58.25;99117.47;4942835;29;19926;-85
2024/03/01 01:22:49;;;;;;;;;;;9.50;99.90;;;9.62;58.11;99113.22;4943278;29;20024;-85
2024/03/01 01:25:16;;;;;;;;;;;9.50;99.90;;;9.67;58.49;99109.81;4958529;28;19926;-85
2024/03/01 01:27:44;;;;;;;;;;;9.50;99.90;;;9.65;58.43;99112.72;4941229;29;19982;-84
2024/03/01 01:30:13;;;;;;;;;;;9.50;99.90;;;9.66;58.73;99109.03;4921432;29;19987;-85
2024/03/01 01:32:41;;;;;;;;;;;9.50;99.90;;;9.63;58.65;99103.38;4921688;29;20304;-85
2024/03/01 01:35:09;;;;;;;;;;;9.50;99.90;;;9.65;58.80;99101.25;4938734;29;19934;-85
2024/03/01 01:37:36;;;;;;;;;;;9.40;99.90;;;9.64;58.34;99091.66;4944895;28;19926;-85
2024/03/01 01:40:05;;;;;;;;;;;9.40;99.90;;;9.63;58.69;99095.38;4939982;29;20384;-85
2024/03/01 01:42:32;;;;;;;;;;;9.40;99.90;;;9.63;59.06;99096.19;4957019;28;20400;-84
2024/03/01 01:44:59;;;;;;;;;;;9.40;99.90;;;9.52;58.17;99092.53;4957031;28;19927;-84
2024/03/01 01:47:27;;;;;;;;;;;9.40;99.90;;;9.53;58.68;99091.47;4962723;28;19930;-84
2024/03/01 01:49:56;;;;;;;;;;;9.40;99.90;;;9.49;58.55;99090.34;4965906;28;20347;-85
2024/03/01 01:52:26;;;;;;;;;;;9.40;99.90;;;9.54;59.07;99081.63;4956730;29;19927;-85
2024/03/01 01:54:54;;;;;;;;;;;9.40;99.90;;;9.55;59.23;99084.06;4923990;29;19932;-85
2024/03/01 01:57:23;;;;;;;;;;;9.30;99.90;;;9.55;58.81;99085.91;4955930;28;19927;-85
2024/03/01 01:59:51;;;;;;;;;;;9.30;99.90;;;9.55;59.03;99075.25;4939310;29;19926;-85
2024/03/01 02:02:22;;;;;;;;;;;9.30;99.90;;;9.46;58.82;99084.66;4957274;29;19926;-84
2024/03/01 02:04:49;;;;;;;;;;;9.30;99.90;;;9.44;58.97;99081.47;4955471;29;19927;-83
2024/03/01 02:07:21;;;;;;;;;;;9.30;99.90;;;9.48;59.35;99079.94;4939265;29;20014;-84
2024/03/01 02:09:50;;;;;;;;;;;9.30;99.90;;;9.47;59.13;99071.16;4937458;29;19926;-84
2024/03/01 02:12:18;;;;;;;;;;;9.30;99.90;;;9.45;58.92;99072.41;4937847;29;20030;-85
2024/03/01 02:14:46;;;;;;;;;;;9.30;99.90;;;9.35;59.19;99061.59;4921051;29;19989;-84
2024/03/01 02:17:13;;;;;;;;;;;9.20;99.90;;;9.36;59.75;99061.34;4920481;29;19927;-85
2024/03/01 02:19:40;;;;;;;;;;;9.20;99.90;;;9.35;59.45;99059.75;4956406;29;19927;-84
2024/03/01 02:22:12;;;;;;;;;;;9.30;99.90;;;9.40;59.70;99048.38;4956967;29;19926;-85
2024/03/01 02:24:41;;;;;;;;;;;9.20;99.90;;;9.38;59.54;99053.16;4940069;29;19974;-84
2024/03/01 02:27:09;;;;;;;;;;;9.20;99.90;;;9.36;59.53;99055.22;4956371;29;19966;-85
2024/03/01 02:29:37;;;;;;;;;;;9.30;99.90;;;9.27;59.74;99050.31;4937703;29;19926;-85
2024/03/01 02:32:04;;;;;;;;;;;9.20;99.90;;;9.26;59.98;99048.66;4937881;29;19951;-85
2024/03/01 02:34:31;;;;;;;;;;;9.20;99.90;;;9.32;60.21;99044.28;4932880;29;19927;-84
2024/03/01 02:36:59;;;;;;;;;;;9.20;99.90;;;9.31;59.74;99037.31;4939480;29;19926;-84
2024/03/01 02:39:26;;;;;;;;;;;9.20;99.90;;;9.37;60.14;99038.19;4956633;28;20029;-85
2024/03/01 02:41:55;;;;;;;;;;;9.20;99.90;;;9.37;60.05;99017.75;4955685;28;19954;-84
2024/03/01 02:44:22;;;;;;;;;;;9.30;99.90;;;9.34;60.29;99020.88;4923431;29;19970;-85
2024/03/01 02:46:50;;;;;;;;;;;9.20;99.90;;;9.40;60.48;99014.59;4937259;29;19933;-85
2024/03/01 02:49:18;;;;;;;;;;;9.20;99.90;;;9.39;60.44;99020.16;4937980;29;19973;-85
2024/03/01 02:51:46;;;;;;;;;;;9.20;99.90;;;9.42;60.72;99019.66;4939926;29;19930;-84
2024/03/01 02:54:13;;;;;;;;;;;9.20;99.90;;;9.38;60.63;99021.22;4936573;29;19954;-85
2024/03/01 02:56:40;;;;;;;;;;;9.20;99.90;;;9.41;60.86;99018.06;4921276;29;19998;-85
2024/03/01 02:59:10;;;;;;;;;;;9.20;99.90;;;9.36;61.04;99015.31;4920915;29;19934;-84
2024/03/01 03:01:37;;;;;;;;;;;9.20;99.90;;;9.38;61.43;99010.56;4929257;29;19931;-84
2024/03/01 03:04:05;;;;;;;;;;;9.10;99.90;;;9.36;61.20;99015.31;4923640;29;19927;-85
2024/03/01 03:06:32;;;;;;;;;;;9.20;99.90;;;9.22;61.22;99022.75;4939251;29;19926;-85
2024/03/01 03:08:59;;;;;;;;;;;9.10;99.90;;;9.20;61.71;99022.22;4940106;29;20021;-85
2024/03/01 03:11:27;;;;;;;;;;;9.10;99.90;;;9.26;61.65;99021.25;4955919;29;20044;-85
2024/03/01 03:13:56;;;;;;;;;;;9.10;99.90;;;9.27;61.62;99012.22;4941249;29;20009;-85
2024/03/01 03:16:25;;;;;;;;;;;9.10;99.90;;;9.26;61.78;99016.72;4893964;29;19963;-85
2024/03/01 03:18:52;;;;;;;;;;;9.10;99.90;;;9.28;61.72;99008.53;4921882;29;19927;-85
2024/03/01 03:21:20;;;;;;;;;;;9.10;99.90;;;9.26;61.80;99006.09;4920058;29;20412;-85
2024/03/01 03:23:47;;;;;;;;;;;9.10;99.90;;;9.25;61.87;99020.44;4920797;29;19974;-85
2024/03/01 03:26:14;;;;;;;;;;;9.10;99.90;;;9.28;62.02;99008.53;4948871;29;20021;-85
2024/03/01 03:28:41;;;;;;;;;;;9.10;99.90;;;9.28;61.85;99008.53;4938951;29;19926;-85
2024/03/01 03:31:08;;;;;;;;;;;9.10;99.90;;;9.29;61.88;99010.94;4955786;29;19976;-85
2024/03/01 03:33:37;;;;;;;;;;;9.10;99.90;;;9.32;61.90;99017.66;4940319;29;19958;-85
2024/03/01 03:36:05;;;;;;;;;;;9.10;99.90;;;9.28;62.10;99024.50;4941035;29;20060;-85
2024/03/01 03:38:33;;;;;;;;;;;9.10;99.90;;;9.19;61.90;99031.25;4937955;29;19927;-84
2024/03/01 03:41:00;;;;;;;;;;;9.10;99.90;;;9.21;62.11;99027.28;4940733;29;19926;-85
2024/03/01 03:43:27;;;;;;;;;;;9.00;99.90;;;9.21;62.18;99029.94;4940596;29;19926;-85
2024/03/01 03:45:54;;;;;;;;;;;9.00;99.90;;;9.20;62.38;99033.66;4937807;29;19974;-85
2024/03/01 03:48:21;;;;;;;;;;;9.00;99.90;;;9.19;62.67;99032.03;4940869;29;19965;-85
2024/03/01 03:50:50;;;;;;;;;;;9.10;99.90;;;9.23;62.53;99035.84;4924822;29;19943;-84
2024/03/01 03:53:18;;;;;;;;;;;9.00;99.90;;;9.21;62.77;99032.59;4924436;29;19934;-85
2024/03/01 03:55:46;;;;;;;;;;;9.00;99.90;;;9.18;62.98;99032.28;4925020;29;20377;-85
2024/03/01 03:58:13;;;;;;;;;;;9.00;99.90;;;9.17;63.35;99034.13;4925579;29;20046;-85
2024/03/01 04:00:40;;;;;;;;;;;9.00;99.90;;;9.15;63.52;99038.06;4925277;29;19926;-85
2024/03/01 04:03:08;;;;;;;;;;;9.00;99.90;;;9.16;63.58;99032.50;4924831;29;19998;-85
2024/03/01 04:05:36;;;;;;;;;;;9.00;99.90;;;9.19;63.86;99031.25;4921487;29;19935;-85
2024/03/01 04:08:05;;;;;;;;;;;9.00;99.90;;;9.22;63.86;99031.59;4923483;29;20017;-84
2024/03/01 04:10:33;;;;;;;;;;;9.00;99.90;;;9.25;64.06;99030.28;4906378;29;19998;-85
2024/03/01 04:13:01;;;;;;;;;;;9.00;99.90;;;9.23;64.25;99037.72;4925751;29;19969;-85
2024/03/01 04:15:28;;;;;;;;;;;9.00;99.90;;;9.22;64.39;99042.22;4942191;29;19930;-85
2024/03/01 04:17:56;;;;;;;;;;;9.00;99.90;;;9.18;64.67;99041.06;4924982;29;20010;-85
2024/03/01 04:20:24;;;;;;;;;;;9.00;99.90;;;9.22;65.02;99036.06;4925110;29;20316;-85
2024/03/01 04:22:51;;;;;;;;;;;8.90;99.90;;;9.15;65.20;99038.06;4941925;29;19927;-85
2024/03/01 04:25:22;;;;;;;;;;;8.90;99.90;;;9.17;65.57;99038.63;4942089;29;20396;-85
2024/03/01 04:27:50;;;;;;;;;;;8.90;99.90;;;9.06;66.22;99034.97;4924972;29;20353;-85
2024/03/01 04:30:17;;;;;;;;;;;8.90;99.90;;;9.02;66.53;99031.97;4924150;29;19974;-85
2024/03/01 04:32:45;;;;;;;;;;;8.90;99.90;;;8.95;67.37;99030.50;4924961;29;20303;-85
2024/03/01 04:35:13;;;;;;;;;;;8.90;99.90;;;9.01;67.03;99029.56;4942064;29;19934;-85
2024/03/01 04:37:40;;;;;;;;;;;8.90;99.90;;;9.09;66.39;99031.06;4941795;29;19973;-85
2024/03/01 04:40:11;;;;;;;;;;;8.90;99.90;;;9.06;67.28;99032.31;4924389;29;20388;-85
2024/03/01 04:42:41;;;;;;;;;;;8.90;99.90;;;9.11;67.00;99031.59;4924548;29;20389;-85
2024/03/01 04:45:09;;;;;;;;;;;9.00;99.90;;;9.06;67.34;99031.50;4927550;29;19934;-85
2024/03/01 04:47:36;;;;;;;;;;;9.00;99.90;;;9.08;67.36;99040.06;4953256;29;20310;-85
2024/03/01 04:50:06;;;;;;;;;;;9.00;99.90;;;9.11;67.34;99039.59;4925025;29;19991;-85
2024/03/01 04:52:33;;;;;;;;;;;9.00;99.90;;;9.05;67.63;99040.53;4940274;29;20009;-85
2024/03/01 04:55:00;;;;;;;;;;;9.00;99.90;;;9.12;67.41;99036.69;4936911;29;19966;-85
2024/03/01 04:57:28;;;;;;;;;;;9.10;99.90;;;9.11;67.65;99040.41;4939764;29;19950;-85
2024/03/01 04:59:56;;;;;;;;;;;9.10;99.90;;;9.10;67.79;99043.31;4937262;29;19942;-85
2024/03/01 05:02:23;;;;;;;;;;;9.00;99.90;;;9.15;67.60;99036.22;4960520;29;19926;-85
2024/03/01 05:04:51;;;;;;;;;;;9.10;99.90;;;9.22;67.48;99041.38;4942910;29;19974;-85
2024/03/01 05:07:19;;;;;;;;;;;9.10;99.90;;;9.23;67.48;99037.72;4943255;29;19978;-85
2024/03/01 05:09:46;;;;;;;;;;;9.10;99.90;;;9.24;67.26;99040.13;4958780;29;20084;-85
2024/03/01 05:12:14;;;;;;;;;;;9.10;99.90;;;9.22;67.60;99044.88;4959380;28;20399;-85
2024/03/01 05:14:42;;;;;;;;;;;9.10;99.90;;;9.26;67.36;99039.88;4959977;28;19933;-85
2024/03/01 05:17:11;;;;;;;;;;;9.10;99.90;;;9.29;67.32;99036.75;4943753;29;19973;-85
2024/03/01 05:19:40;;;;;;;;;;;9.20;99.90;;;9.28;67.38;99041.25;4959005;28;19930;-85
2024/03/01 05:22:12;;;;;;;;;;;9.20;99.90;;;9.21;67.72;99040.59;4960380;29;19926;-85
2024/03/01 05:24:40;;;;;;;;;;;9.10;99.90;;;9.22;67.68;99038.72;4958797;29;20419;-85
2024/03/01 05:27:12;;;;;;;;;;;9.10;99.90;;;9.26;67.85;99042.53;4942481;29;20314;-85
2024/03/01 05:29:40;;;;;;;;;;;9.10;99.90;;;9.30;67.67;99041.03;4960505;29;19927;-85
2024/03/01 05:32:08;;;;;;;;;;;9.20;99.90;;;9.33;67.82;99047.72;4948107;29;19927;-85
2024/03/01 05:34:37;;;;;;;;;;;9.20;99.90;;;9.34;67.69;99052.00;4940312;29;19926;-86
2024/03/01 05:37:06;;;;;;;;;;;9.20;99.90;;;9.36;67.71;99041.91;4924301;29;20324;-85
2024/03/01 05:39:33;;;;;;;;;;;9.20;99.90;;;9.40;67.83;99045.72;4940238;29;20348;-85
2024/03/01 05:42:02;;;;;;;;;;;9.20;99.90;;;9.39;67.83;99047.56;4943635;29;20022;-83
2024/03/01 05:44:30;;;;;;;;;;;9.30;99.90;;;9.40;67.82;99049.19;4927269;29;19934;-83
2024/03/01 05:46:58;;;;;;;;;;;9.30;99.90;;;9.41;68.03;99040.16;4961131;29;19926;-82
2024/03/01 05:49:26;;;;;;;;;;;9.30;99.90;;;9.42;68.26;99040.94;4958644;29;19999;-82
2024/03/01 05:51:55;;;;;;;;;;;9.30;99.90;;;9.43;68.02;99050.56;4959412;29;19962;-82
2024/03/01 05:54:22;;;;;;;;;;;9.30;99.90;;;9.37;68.67;99051.50;4930632;29;20392;-82
2024/03/01 05:56:49;;;;;;;;;;;9.30;99.90;;;9.37;68.84;99052.34;4907264;29;20034;-82
2024/03/01 05:59:16;;;;;;;;;;;9.30;99.90;;;9.36;68.88;99063.19;4945181;29;19961;-81
2024/03/01 06:01:44;;;;;;;;;;;9.30;99.90;;;9.34;68.96;99058.13;4926464;29;20451;-82
2024/03/01 06:04:11;;;;;;;;;;;9.30;99.90;;;9.37;68.87;99060.31;4943175;29;19926;-82
2024/03/01 06:06:38;;;;;;;;;;;9.40;99.90;;;9.38;68.98;99069.91;4944579;29;19986;-82
2024/03/01 06:09:09;;;;;;;;;;;9.40;99.90;;;9.32;69.21;99078.84;4924201;29;19926;-81
2024/03/01 06:11:36;;;;;;;;;;;9.30;99.90;;;9.39;68.87;99074.19;4940546;29;19926;-82
2024/03/01 06:14:03;;;;;;;;;;;9.40;99.90;;;9.41;69.12;99079.25;4939529;29;19954;-81
2024/03/01 06:16:31;;;;;;;;;;;9.40;99.90;;;9.37;69.44;99078.94;4923522;29;19958;-82
2024/03/01 06:18:58;;;;;;;;;;;9.40;99.90;;;9.36;69.56;99079.97;4940585;29;19926;-83
2024/03/01 06:21:26;;;;;;;;;;;9.40;99.90;;;9.43;69.16;99083.31;4926220;29;19926;-84
2024/03/01 06:23:53;;;;;;;;;;;9.40;99.90;;;9.43;69.25;99085.97;4962553;29;19927;-85
2024/03/01 06:26:22;;;;;;;;;;;9.40;99.90;;;9.42;69.47;99097.66;4945624;29;20021;-84
2024/03/01 06:28:50;;;;;;;;;;;9.40;99.90;;;9.39;69.68;99111.44;4945068;29;19977;-86
2024/03/01 06:31:18;;;;;;;;;;;9.40;99.90;;;9.38;69.73;99109.03;4966406;28;19927;-83
2024/03/01 06:33:45;;;;;;;;;;;9.40;99.90;;;9.38;69.89;99114.34;4939512;29;19927;-84
2024/03/01 06:36:12;;;;;;;;;;;9.50;99.90;;;9.33;69.86;99125.69;4930346;29;20009;-84
2024/03/01 06:38:39;;;;;;;;;;;9.40;99.90;;;9.33;70.31;99123.03;4936113;29;19930;-84
2024/03/01 06:41:08;;;;;;;;;;;9.40;99.90;;;9.34;70.33;99137.94;4962750;28;19974;-84
2024/03/01 06:43:37;;;;;;;;;;;9.40;99.90;;;9.33;70.80;99138.19;4946162;29;19927;-83
2024/03/01 06:46:06;;;;;;;;;;;9.40;99.90;;;9.35;71.03;99136.09;4941085;29;20292;-84
2024/03/01 06:48:34;;;;;;;;;;;9.40;99.90;;;9.32;71.55;99145.38;4941920;29;19973;-84
2024/03/01 06:51:01;;;;;;;;;;;9.30;99.90;;;9.28;71.92;99146.88;4942743;29;20400;-84
2024/03/01 06:53:29;;;;;;;;;;;9.30;99.90;;;9.31;72.16;99150.91;4942989;29;20443;-87
2024/03/01 06:55:57;;;;;;;;;;;9.30;99.90;;;9.30;72.13;99150.09;4956863;29;19933;-87
2024/03/01 06:58:25;;;;;;;;;;;9.30;99.90;;;9.34;72.07;99151.25;4940214;29;20269;-87
2024/03/01 07:00:55;;;;;;;;;;;9.30;99.90;;;9.34;72.12;99161.88;4939580;29;20324;-87
2024/03/01 07:03:23;;;;;;;;;;;9.30;99.90;;;9.22;72.79;99158.44;4941610;29;19974;-90
2024/03/01 07:05:50;;;;;;;;;;;9.30;99.90;;;9.07;73.65;99163.44;4955654;28;19927;-87
2024/03/01 07:08:17;;;;;;;;;;;9.20;99.90;;;9.05;73.85;99176.97;4932720;29;19927;-87
2024/03/01 07:10:45;;;;;;;;;;;9.30;99.90;;;9.09;73.82;99186.09;4924176;29;19927;-83
2024/03/01 07:13:12;;;;;;;;;;;9.10;99.90;;;9.06;73.92;99193.72;4926855;29;19950;-83
2024/03/01 07:15:39;;;;;;;;;;;9.10;99.90;;;8.99;73.19;99192.00;4924776;29;19967;-83
2024/03/01 07:18:10;;;;;;;;;;;9.10;99.90;;;9.01;72.83;99195.25;4924426;29;19934;-83
2024/03/01 07:20:37;;;;;;;;;;;9.00;99.90;;;9.09;72.42;99207.38;4935862;29;19934;-82
2024/03/01 07:23:04;;;;;;;;;;;9.00;99.90;;;9.10;71.33;99206.34;4940198;29;19927;-83
2024/03/01 07:25:33;;;;;;;;;;;9.00;99.90;;;9.09;71.08;99203.91;4924447;29;19978;-83
2024/03/01 07:28:00;;;;;;;;;;;9.00;99.90;;;9.08;69.95;99202.28;4924172;29;20022;-83
2024/03/01 07:30:28;;;;;;;;;;;9.00;99.90;;;9.05;69.59;99205.41;4924398;29;19927;-83
2024/03/01 07:32:55;;;;;;;;;;;8.90;99.90;;;9.00;69.10;99208.78;4926321;29;19927;-83
2024/03/01 07:35:24;;;;;;;;;;;8.90;99.90;;;9.00;69.11;99219.41;4949880;29;19991;-83
2024/03/01 07:37:51;;;;;;;;;;;8.80;99.90;;;8.98;69.04;99217.00;4944241;29;19988;-83
2024/03/01 07:40:18;;;;;;;;;;;8.80;99.90;;;9.00;68.76;99230.03;4942875;29;19927;-83
2024/03/01 07:42:45;;;;;;;;;;;8.80;99.90;;;9.02;68.79;99230.63;4945036;29;19927;-83
2024/03/01 07:45:13;;;;;;;;;;;8.90;99.90;;;9.06;68.70;99234.44;4934302;29;19934;-83
2024/03/01 07:47:43;;;;;;;;;;;8.90;99.90;;;9.09;68.92;99231.31;4942306;29;19930;-81
2024/03/01 07:50:10;;;;;;;;;;;8.90;99.90;;;9.11;68.69;99231.09;4962187;29;19937;-83
2024/03/01 07:52:39;;;;;;;;;;;8.90;99.90;;;9.04;69.03;99231.22;4946047;29;20392;-83
2024/03/01 07:55:06;;;;;;;;;;;8.90;99.90;;;9.04;69.21;99236.53;4963024;29;19927;-84
2024/03/01 07:57:34;;;;;;;;;;;8.90;99.90;;;9.01;69.51;99239.63;4960085;29;19927;-83
2024/03/01 08:00:02;;;;;;;;;;;8.90;99.90;;;8.98;69.77;99240.13;4962248;29;20029;-83
2024/03/01 08:02:31;;;;;;;;;;;8.80;99.90;;;8.99;69.96;99244.38;4949548;29;20392;-83
2024/03/01 08:04:59;;;;;;;;;;;8.90;99.90;;;9.03;70.19;99237.56;4944529;29;19926;-83
2024/03/01 08:07:26;;;;;;;;;;;8.80;99.90;;;8.98;70.25;99248.91;4943537;29;19926;-83
2024/03/01 08:09:55;;;;;;;;;;;8.80;99.90;;;8.91;70.70;99247.38;4931348;29;19927;-83
2024/03/01 08:12:23;;;;;;;;;;;8.70;99.90;;;8.91;70.94;99245.53;4946016;29;19962;-83
2024/03/01 08:14:52;;;;;;;;;;;8.70;99.90;;;8.86;70.71;99250.72;4947943;29;20392;-83
2024/03/01 08:17:19;;;;;;;;;;;8.70;99.90;;;8.91;70.71;99252.69;4939872;29;20411;-83
2024/03/01 08:19:50;;;;;;;;;;;8.70;99.90;;;8.94;70.62;99249.59;4946029;29;19931;-83
2024/03/01 08:22:19;;;;;;;;;;;8.80;99.90;;;8.94;70.37;99257.56;4964250;28;19998;-83
2024/03/01 08:24:47;;;;;;;;;;;8.80;99.90;;;8.91;70.36;99258.81;4962597;29;20383;-83
2024/03/01 08:27:21;;;;;;;;;;;8.80;99.90;;;8.91;70.33;99258.03;4940688;29;19955;-83
2024/03/01 08:29:48;;;;;;;;;;;8.80;99.90;;;8.96;70.52;99258.13;4943557;29;20285;-83
2024/03/01 08:32:28;;;;;;;;;;;8.80;99.90;;;9.01;70.25;99264.38;4928107;29;19927;-83
2024/03/01 08:34:56;;;;;;;;;;;8.80;99.90;;;8.99;70.43;99270.97;4952569;29;19950;-82
2024/03/01 08:37:25;;;;;;;;;;;8.80;99.90;;;9.00;70.17;99280.56;4946293;29;20014;-83
2024/03/01 08:39:53;;;;;;;;;;;8.80;99.90;;;8.96;70.19;99274.09;4959960;28;19951;-83
2024/03/01 08:42:21;;;;;;;;;;;8.80;99.90;;;8.99;70.14;99270.97;4943358;29;19927;-83
2024/03/01 08:45:03;;;;;;;;;;;8.80;99.90;;;9.01;69.88;99283.00;4956858;29;20025;-83
2024/03/01 08:47:32;;;;;;;;;;;8.80;99.90;;;9.05;69.99;99278.03;4961911;29;19926;-83
2024/03/01 08:50:38;;;;;;;;;;;8.90;99.90;;;9.08;69.72;99282.91;4942867;29;19933;-83
2024/03/01 08:53:29;;;;;;;;;;;8.90;99.90;;;9.01;69.81;99277.69;4951499;29;20396;-83
2024/03/01 08:55:58;;;;;;;;;;;8.90;99.90;;;9.00;69.83;99289.34;4961152;29;19926;-83
2024/03/01 08:58:27;;;;;;;;;;;8.80;99.90;;;9.00;69.75;99291.22;4944002;29;19926;-83
2024/03/01 09:00:56;;;;;;;;;;;8.80;99.90;;;8.98;70.03;99294.09;4943527;29;20370;-83
2024/03/01 09:03:25;;;;;;;;;;;8.80;99.90;;;8.94;70.24;99297.44;4941830;29;19927;-83
2024/03/01 09:05:55;;;;;;;;;;;8.80;99.90;;;8.98;70.17;99304.75;4960789;28;20014;-83
2024/03/01 09:08:24;;;;;;;;;;;8.80;99.90;;;8.95;70.34;99296.41;4943671;29;19927;-83
2024/03/01 09:10:52;;;;;;;;;;;8.80;99.90;;;8.95;70.16;99296.41;4942359;29;19954;-83
2024/03/01 09:13:22;;;;;;;;;;;8.80;99.90;;;9.00;70.06;99288.56;4928032;29;20303;-84
2024/03/01 09:15:55;;;;;;;;;;;8.80;99.90;;;8.89;70.44;99302.66;4943080;29;20414;-83
2024/03/01 09:18:49;;;;;;;;;;;8.80;99.90;;;8.93;70.78;99288.66;4943415;29;19926;-83
2024/03/01 09:21:42;;;;;;;;;;;8.80;99.90;;;9.01;71.00;99287.50;4913280;29;20402;-83
2024/03/01 09:24:14;;;;;;;;;;;8.80;99.90;;;9.06;71.24;99286.81;4911656;29;19934;-83
2024/03/01 09:26:42;;;;;;;;;;;8.90;99.90;;;9.11;71.29;99286.94;4943637;29;20001;-83
2024/03/01 09:29:22;;;;;;;;;;;9.00;99.90;;;9.12;71.58;99289.34;4942992;29;19949;-84
2024/03/01 09:31:51;;;;;;;;;;;9.00;99.90;;;9.17;71.48;99283.34;4953710;29;20388;-84
2024/03/01 09:34:18;;;;;;;;;;;9.10;99.90;;;9.24;70.87;99284.84;4955630;29;19984;-84
2024/03/01 09:36:45;;;;;;;;;;;9.20;99.90;;;9.29;70.66;99281.50;4959621;29;19950;-83
2024/03/01 09:39:14;;;;;;;;;;;9.20;99.90;;;9.33;70.84;99284.53;4939348;29;19935;-84
2024/03/01 09:41:49;;;;;;;;;;;9.30;99.90;;;9.39;70.46;99283.59;4959574;29;19926;-83
2024/03/01 09:44:26;;;;;;;;;;;9.40;99.90;;;9.46;69.74;99281.59;4932434;29;19973;-83
2024/03/01 09:47:01;;;;;;;;;;;9.50;99.90;;;9.44;68.89;99286.34;4938356;29;19927;-83
2024/03/01 09:49:48;;;;;;;;;;;9.50;99.90;;;9.42;68.67;99286.59;4941444;29;19927;-84
2024/03/01 09:52:23;;;;;;;;;;;9.50;99.90;;;9.45;68.83;99290.63;4940279;29;19931;-83
2024/03/01 09:54:55;;;;;;;;;;;9.50;99.90;;;9.51;68.74;99285.19;4954790;29;20006;-83
2024/03/01 09:57:25;;;;;;;;;;;9.50;99.90;;;9.43;68.12;99285.56;4933236;29;20034;-83
2024/03/01 10:00:00;;;;;;;;;;;9.50;99.90;;;9.52;68.28;99275.38;4929040;29;19955;-83
2024/03/01 10:02:37;;;;;;;;;;;9.60;99.90;;;9.58;68.16;99279.75;4939127;29;19927;-83
2024/03/01 10:05:26;;;;;;;;;;;9.60;99.90;;;9.51;68.09;99274.53;4939103;29;19926;-83
2024/03/01 10:08:00;;;;;;;;;;;9.60;99.90;;;9.56;68.32;99276.50;4921196;29;20022;-83
2024/03/01 10:10:46;;;;;;;;;;;9.70;99.90;;;9.59;68.03;99276.03;4929442;29;19931;-83
2024/03/01 10:13:21;;;;;;;;;;;9.70;99.90;;;9.62;67.93;99272.91;4941251;29;19926;-84
2024/03/01 10:15:57;;;;;;;;;;;9.80;99.90;;;9.72;68.24;99274.97;4966863;28;20002;-84
2024/03/01 10:18:43;;;;;;;;;;;9.80;99.90;;;9.78;66.98;99284.69;4943957;28;20470;-83
2024/03/01 10:21:23;;;;;;;;;;;9.90;99.90;;;9.82;67.00;99272.53;4955251;29;20337;-84
2024/03/01 10:24:02;;;;;;;;;;;9.90;99.90;;;9.87;65.93;99263.84;4939683;29;20387;-84
2024/03/01 10:26:30;;;;;;;;;;;10.00;99.90;;;9.88;65.26;99268.09;4904346;29;20038;-84
2024/03/01 10:29:12;;;;;;;;;;;10.00;99.90;;;9.91;64.85;99267.66;4919393;29;19934;-84
2024/03/01 10:31:45;;;;;;;;;;;10.10;99.90;;;9.98;65.13;99269.09;4920180;29;19959;-84
2024/03/01 10:34:19;;;;;;;;;;;10.10;99.90;;;10.07;65.63;99267.69;4916056;29;19963;-83
2024/03/01 10:36:53;;;;;;;;;;;10.20;99.90;;;10.07;64.53;99265.03;4909408;29;19959;-84
2024/03/01 10:39:25;;;;;;;;;;;10.20;99.90;;;10.11;64.79;99256.56;4900360;29;19927;-84
2024/03/01 10:42:09;;;;;;;;;;;10.30;99.90;;;10.08;63.62;99265.84;4905810;29;19931;-84
2024/03/01 10:44:41;;;;;;;;;;;10.20;99.90;;;10.06;63.40;99257.28;4900997;29;20323;-85
2024/03/01 10:47:17;;;;;;;;;;;10.20;99.90;;;10.01;63.95;99268.66;4910811;29;19928;-84
2024/03/01 10:50:07;;;;;;;;;;;10.20;99.90;;;9.94;62.29;99265.28;4914232;29;20027;-84
2024/03/01 10:52:39;;;;;;;;;;;10.20;99.90;;;9.94;62.94;99253.84;4902797;29;19973;-84
2024/03/01 10:55:11;;;;;;;;;;;10.20;99.90;;;9.89;62.29;99259.88;4918337;29;19927;-83
2024/03/01 10:57:45;;;;;;;;;;;10.10;99.90;;;9.93;62.31;99260.22;4907819;29;20478;-83
2024/03/01 11:00:14;;;;;;;;;;;10.10;99.90;;;9.93;61.64;99245.03;4909347;29;20434;-83
2024/03/01 11:02:47;;;;;;;;;;;10.10;99.90;;;10.01;62.30;99251.84;4920280;29;19934;-83
2024/03/01 11:05:23;;;;;;;;;;;10.20;99.90;;;10.10;62.32;99239.75;4939473;29;19927;-83
2024/03/01 11:07:56;;;;;;;;;;;10.30;99.90;;;10.03;61.44;99234.56;4940600;29;20404;-83
2024/03/01 11:10:26;;;;;;;;;;;10.30;99.90;;;9.95;61.34;99237.59;4940147;29;19938;-83
2024/03/01 11:12:56;;;;;;;;;;;10.20;99.90;;;9.97;62.42;99234.72;4941743;29;20359;-83
2024/03/01 11:15:27;;;;;;;;;;;10.20;99.90;;;10.00;62.94;99232.41;4943604;29;19951;-84
2024/03/01 11:17:56;;;;;;;;;;;10.20;99.90;;;10.02;62.51;99227.63;4944203;29;19927;-84
2024/03/01 11:20:29;;;;;;;;;;;10.20;99.90;;;10.01;62.21;99228.69;4942856;29;19954;-84
2024/03/01 11:23:00;;;;;;;;;;;10.20;99.90;;;9.95;61.53;99220.81;4943824;29;19926;-84
2024/03/01 11:25:35;;;;;;;;;;;10.20;99.90;;;9.96;62.19;99225.13;4926743;29;19978;-84
2024/03/01 11:28:05;;;;;;;;;;;10.20;99.90;;;10.05;62.56;99224.50;4926957;29;19927;-84
2024/03/01 11:30:37;;;;;;;;;;;10.20;99.90;;;10.09;62.37;99216.03;4943188;29;19931;-84
2024/03/01 11:33:07;;;;;;;;;;;10.30;99.90;;;10.10;62.19;99222.97;4944328;29;19931;-84
2024/03/01 11:35:41;;;;;;;;;;;10.30;99.90;;;10.09;62.47;99216.03;4944489;29;19926;-84
2024/03/01 11:38:16;;;;;;;;;;;10.30;99.90;;;10.10;61.88;99206.97;4942771;29;19927;-84
2024/03/01 11:40:52;;;;;;;;;;;10.30;99.90;;;10.14;61.95;99224.91;4943111;29;19937;-84
2024/03/01 11:43:33;;;;;;;;;;;10.40;99.90;;;10.16;61.90;99222.03;4943505;29;20385;-84